createdAt,value
2017-09-20T00:00:20.068Z,17.50
2017-09-20T00:02:47.710Z,17.55
2017-09-20T00:05:15.324Z,17.40
2017-09-20T00:07:42.932Z,17.15
2017-09-20T00:10:10.584Z,17.58
2017-09-20T00:12:38.178Z,15.82
2017-09-20T00:15:05.808Z,16.52
2017-09-20T00:17:33.445Z,17.30
2017-09-20T00:20:01.088Z,17.25
2017-09-20T00:22:28.715Z,17.10
2017-09-20T00:24:56.340Z,17.00
2017-09-20T00:27:24.031Z,15.50
2017-09-20T00:29:51.686Z,16.42
2017-09-20T00:32:19.403Z,17.95
2017-09-20T00:34:47.110Z,16.60
2017-09-20T00:37:14.750Z,14.55
2017-09-20T00:39:42.344Z,15.25
2017-09-20T00:42:09.991Z,15.10
2017-09-20T00:44:37.655Z,14.15
2017-09-20T00:47:05.249Z,16.35
2017-09-20T00:49:32.909Z,16.02
2017-09-20T00:52:00.559Z,15.52
2017-09-20T00:54:29.002Z,20.37
2017-09-20T00:56:56.675Z,23.42
2017-09-20T00:59:24.350Z,20.45
2017-09-20T01:01:52.054Z,20.77
2017-09-20T01:04:19.736Z,18.10
2017-09-20T01:06:47.372Z,18.65
2017-09-20T01:09:15.122Z,17.60
2017-09-20T01:11:42.746Z,19.10
2017-09-20T01:14:10.396Z,19.00
2017-09-20T01:16:38.044Z,18.10
2017-09-20T01:19:05.765Z,18.42
2017-09-20T01:21:56.992Z,17.33
2017-09-20T01:24:24.662Z,16.75
2017-09-20T01:26:52.876Z,15.90
2017-09-20T01:29:20.528Z,17.92
2017-09-20T01:31:48.165Z,18.70
2017-09-20T01:34:15.823Z,19.27
2017-09-20T01:36:43.469Z,18.50
2017-09-20T01:39:11.225Z,16.62
2017-09-20T01:41:38.878Z,16.75
2017-09-20T01:44:07.333Z,15.88
2017-09-20T01:46:34.976Z,15.07
2017-09-20T01:49:02.723Z,17.23
2017-09-20T01:51:30.337Z,17.00
2017-09-20T01:53:57.975Z,19.62
2017-09-20T01:56:25.605Z,19.85
2017-09-20T01:58:53.266Z,20.60
2017-09-20T02:01:20.934Z,21.85
2017-09-20T02:03:48.583Z,20.40
2017-09-20T02:06:16.252Z,22.40
2017-09-20T02:08:43.963Z,24.30
2017-09-20T02:11:11.646Z,26.40
2017-09-20T02:13:39.355Z,24.10
2017-09-20T02:16:07.008Z,25.33
2017-09-20T02:18:34.634Z,27.98
2017-09-20T02:21:02.286Z,26.12
2017-09-20T02:23:29.931Z,24.55
2017-09-20T02:25:57.489Z,24.33
2017-09-20T02:28:25.103Z,27.00
2017-09-20T02:30:52.863Z,25.52
2017-09-20T02:33:20.464Z,27.83
2017-09-20T02:35:48.977Z,31.12
2017-09-20T02:38:16.709Z,30.37
2017-09-20T02:40:44.418Z,29.73
2017-09-20T02:43:12.276Z,32.38
2017-09-20T02:45:40.093Z,31.65
2017-09-20T02:48:07.840Z,31.95
2017-09-20T02:50:35.518Z,32.15
2017-09-20T02:53:03.188Z,34.13
2017-09-20T02:55:31.173Z,36.17
2017-09-20T02:57:58.834Z,36.22
2017-09-20T03:00:26.536Z,39.63
2017-09-20T03:02:54.286Z,45.00
2017-09-20T03:05:21.960Z,35.17
2017-09-20T03:07:49.641Z,36.63
2017-09-20T03:10:17.302Z,37.42
2017-09-20T03:12:45.683Z,34.50
2017-09-20T03:15:13.388Z,34.17
2017-09-20T03:17:41.059Z,33.95
2017-09-20T03:20:08.746Z,35.22
2017-09-20T03:22:36.484Z,32.85
2017-09-20T03:25:04.179Z,35.53
2017-09-20T03:27:31.855Z,35.45
2017-09-20T03:29:59.648Z,31.25
2017-09-20T03:32:27.300Z,34.20
2017-09-20T03:34:55.012Z,34.85
2017-09-20T03:37:22.696Z,34.35
2017-09-20T03:39:50.377Z,34.85
2017-09-20T03:42:18.074Z,38.95
2017-09-20T03:44:46.478Z,35.10
2017-09-20T03:47:14.114Z,38.17
2017-09-20T03:49:41.731Z,36.45
2017-09-20T03:52:09.410Z,36.50
2017-09-20T03:54:37.027Z,37.50
2017-09-20T03:57:04.673Z,38.42
2017-09-20T03:59:32.371Z,37.50
2017-09-20T04:02:00.019Z,39.72
2017-09-20T04:04:27.610Z,37.30
2017-09-20T04:06:55.262Z,38.70
2017-09-20T04:09:22.863Z,36.33
2017-09-20T04:11:50.510Z,38.33
2017-09-20T04:14:18.147Z,40.05
2017-09-20T04:16:45.753Z,41.97
2017-09-20T04:19:13.396Z,42.80
2017-09-20T04:21:41.042Z,47.55
2017-09-20T04:24:08.663Z,49.40
2017-09-20T04:26:36.334Z,59.45
2017-09-20T04:29:03.993Z,62.97
2017-09-20T04:31:31.624Z,51.10
2017-09-20T04:33:59.326Z,55.03
2017-09-20T04:36:27.691Z,55.08
2017-09-20T04:38:55.305Z,49.25
2017-09-20T04:41:22.944Z,53.10
2017-09-20T04:43:50.645Z,45.25
2017-09-20T04:46:18.274Z,38.75
2017-09-20T04:48:45.945Z,40.08
2017-09-20T04:51:13.714Z,39.05
2017-09-20T04:53:41.420Z,39.20
2017-09-20T04:56:09.058Z,40.28
2017-09-20T04:58:36.739Z,38.95
2017-09-20T05:01:04.445Z,36.40
2017-09-20T05:03:32.658Z,37.22
2017-09-20T05:06:00.406Z,36.67
2017-09-20T05:08:28.080Z,39.08
2017-09-20T05:10:55.784Z,36.63
2017-09-20T05:13:23.488Z,42.78
2017-09-20T05:15:51.939Z,39.92
2017-09-20T05:18:19.551Z,40.83
2017-09-20T05:20:47.243Z,35.97
2017-09-20T05:23:15.004Z,38.50
2017-09-20T05:25:42.696Z,41.37
2017-09-20T05:28:10.433Z,41.13
2017-09-20T05:30:38.186Z,41.50
2017-09-20T05:33:06.827Z,39.38
2017-09-20T05:35:34.560Z,40.42
2017-09-20T05:38:02.341Z,42.78
2017-09-20T05:40:31.283Z,40.10
2017-09-20T05:42:59.018Z,40.05
2017-09-20T05:45:26.671Z,44.70
2017-09-20T05:47:55.504Z,43.65
2017-09-20T05:50:23.246Z,43.03
2017-09-20T05:52:50.895Z,41.42
2017-09-20T05:55:18.570Z,44.42
2017-09-20T05:57:46.224Z,38.47
2017-09-20T06:00:13.899Z,34.95
2017-09-20T06:02:41.535Z,32.70
2017-09-20T06:05:09.173Z,30.73
2017-09-20T06:07:36.824Z,28.75
2017-09-20T06:10:04.527Z,30.75
2017-09-20T06:12:32.215Z,31.10
2017-09-20T06:14:59.824Z,30.33
2017-09-20T06:17:27.460Z,30.92
2017-09-20T06:19:55.090Z,28.25
2017-09-20T06:22:22.724Z,30.90
2017-09-20T06:24:50.388Z,31.02
2017-09-20T06:27:17.993Z,32.22
2017-09-20T06:29:45.622Z,31.40
2017-09-20T06:32:13.271Z,32.97
2017-09-20T06:34:40.906Z,34.50
2017-09-20T06:37:08.603Z,35.55
2017-09-20T06:39:36.234Z,35.38
2017-09-20T06:42:03.861Z,35.70
2017-09-20T06:44:31.564Z,34.85
2017-09-20T06:47:00.035Z,36.03
2017-09-20T06:49:28.644Z,37.10
2017-09-20T06:51:56.303Z,38.60
2017-09-20T06:54:23.910Z,38.40
2017-09-20T06:56:51.554Z,37.00
2017-09-20T06:59:19.190Z,38.40
2017-09-20T07:01:46.826Z,39.17
2017-09-20T07:04:14.496Z,39.25
2017-09-20T07:06:42.202Z,40.00
2017-09-20T07:09:10.020Z,39.92
2017-09-20T07:11:37.659Z,39.15
2017-09-20T07:14:05.412Z,39.60
2017-09-20T07:16:33.042Z,39.10
2017-09-20T07:19:00.683Z,37.65
2017-09-20T07:21:28.372Z,36.90
2017-09-20T07:23:56.055Z,37.00
2017-09-20T07:26:23.653Z,37.03
2017-09-20T07:28:51.326Z,36.60
2017-09-20T07:31:18.996Z,37.92
2017-09-20T07:33:46.633Z,37.42
2017-09-20T07:36:14.251Z,35.72
2017-09-20T07:38:41.918Z,32.63
2017-09-20T07:41:09.542Z,38.42
2017-09-20T07:43:37.210Z,37.25
2017-09-20T07:46:04.824Z,37.80
2017-09-20T07:48:32.447Z,40.35
2017-09-20T07:51:00.124Z,38.45
2017-09-20T07:53:27.684Z,38.92
2017-09-20T07:55:55.303Z,37.50
2017-09-20T07:58:22.930Z,37.83
2017-09-20T08:00:51.336Z,39.35
2017-09-20T08:03:18.962Z,36.10
2017-09-20T08:05:46.598Z,38.75
2017-09-20T08:08:14.185Z,38.28
2017-09-20T08:10:41.818Z,39.65
2017-09-20T08:13:09.490Z,42.55
2017-09-20T08:15:37.075Z,37.13
2017-09-20T08:18:04.692Z,43.28
2017-09-20T08:20:32.316Z,37.38
2017-09-20T08:22:59.948Z,39.88
2017-09-20T08:25:27.542Z,40.80
2017-09-20T08:27:55.176Z,45.42
2017-09-20T08:30:22.795Z,54.50
2017-09-20T08:32:50.460Z,48.72
2017-09-20T08:35:18.061Z,49.17
2017-09-20T08:37:45.712Z,48.05
2017-09-20T08:40:13.374Z,49.05
2017-09-20T08:42:41.017Z,50.70
2017-09-20T08:45:08.607Z,49.17
2017-09-20T08:47:36.238Z,52.97
2017-09-20T08:50:03.954Z,48.65
2017-09-20T08:52:31.662Z,50.00
2017-09-20T08:54:59.319Z,46.47
2017-09-20T08:57:26.959Z,47.28
2017-09-20T08:59:54.557Z,49.08
2017-09-20T09:02:22.183Z,48.13
2017-09-20T09:04:49.810Z,46.00
2017-09-20T09:07:18.193Z,42.85
2017-09-20T09:09:46.606Z,46.00
2017-09-20T09:12:14.236Z,45.97
2017-09-20T09:14:41.890Z,39.95
2017-09-20T09:17:09.657Z,40.47
2017-09-20T09:19:37.290Z,39.97
2017-09-20T09:22:04.903Z,41.45
2017-09-20T09:24:32.533Z,44.15
2017-09-20T09:27:00.155Z,42.30
2017-09-20T09:29:27.798Z,43.72
2017-09-20T09:31:55.423Z,42.20
2017-09-20T09:34:23.839Z,39.85
2017-09-20T09:36:51.472Z,40.05
2017-09-20T09:39:19.108Z,39.45
2017-09-20T09:41:46.755Z,36.83
2017-09-20T09:44:14.396Z,37.25
2017-09-20T09:46:42.056Z,36.42
2017-09-20T09:49:09.725Z,33.80
2017-09-20T09:51:37.316Z,34.42
2017-09-20T09:54:04.959Z,30.12
2017-09-20T09:56:32.617Z,30.52
2017-09-20T09:59:00.248Z,28.95
2017-09-20T10:01:27.835Z,29.25
2017-09-20T10:03:55.482Z,27.90
2017-09-20T10:06:23.206Z,29.33
2017-09-20T10:08:52.973Z,29.42
2017-09-20T10:11:20.653Z,26.65
2017-09-20T10:13:48.335Z,27.92
2017-09-20T10:16:16.096Z,25.90
2017-09-20T10:18:43.796Z,26.33
2017-09-20T10:21:11.477Z,25.43
2017-09-20T10:23:39.230Z,24.80
2017-09-20T10:26:06.903Z,25.27
2017-09-20T10:28:34.529Z,24.93
2017-09-20T10:31:02.143Z,23.33
2017-09-20T10:33:31.803Z,21.53
2017-09-20T10:36:00.180Z,20.43
2017-09-20T10:38:28.619Z,21.70
2017-09-20T10:40:56.311Z,20.57
2017-09-20T10:43:23.991Z,20.63
2017-09-20T10:45:51.800Z,19.80
2017-09-20T10:48:19.536Z,21.10
2017-09-20T10:50:47.196Z,20.77
2017-09-20T10:53:14.989Z,20.70
2017-09-20T10:55:42.704Z,21.80
2017-09-20T10:58:10.406Z,20.50
2017-09-20T11:00:38.157Z,20.80
2017-09-20T11:03:05.853Z,18.23
2017-09-20T11:05:33.514Z,17.80
2017-09-20T11:08:01.198Z,19.00
2017-09-20T11:10:28.854Z,19.40
2017-09-20T11:12:57.299Z,19.20
2017-09-20T11:15:25.002Z,18.87
2017-09-20T11:17:52.771Z,20.00
2017-09-20T11:20:20.448Z,16.30
2017-09-20T11:22:48.891Z,17.02
2017-09-20T11:25:16.679Z,20.23
2017-09-20T11:27:44.341Z,21.40
2017-09-20T11:30:12.017Z,17.90
2017-09-20T11:32:39.942Z,15.32
2017-09-20T11:35:07.620Z,14.50
2017-09-20T11:37:35.269Z,13.75
2017-09-20T11:40:02.909Z,14.07
2017-09-20T11:42:30.541Z,10.88
2017-09-20T11:44:58.161Z,10.40
2017-09-20T11:47:25.891Z,10.80
2017-09-20T11:49:53.554Z,11.45
2017-09-20T11:52:21.227Z,11.63
2017-09-20T11:54:48.856Z,11.45
2017-09-20T11:57:16.521Z,11.82
2017-09-20T11:59:44.168Z,13.07
2017-09-20T12:02:12.606Z,12.70
2017-09-20T12:04:40.360Z,11.93
2017-09-20T12:07:08.014Z,11.65
2017-09-20T12:09:35.634Z,12.25
2017-09-20T12:12:03.308Z,11.32
2017-09-20T12:14:31.710Z,12.37
2017-09-20T12:16:59.444Z,13.43
2017-09-20T12:19:27.799Z,14.52
2017-09-20T12:21:55.423Z,11.93
2017-09-20T12:24:23.171Z,9.57
2017-09-20T12:26:50.810Z,11.65
2017-09-20T12:29:18.542Z,11.95
2017-09-20T12:31:46.238Z,12.05
2017-09-20T12:34:13.906Z,11.40
2017-09-20T12:36:41.635Z,11.90
2017-09-20T12:39:09.281Z,12.27
2017-09-20T12:41:36.963Z,10.85
2017-09-20T12:44:04.560Z,11.50
2017-09-20T12:46:32.371Z,11.80
2017-09-20T12:49:00.042Z,9.93
2017-09-20T12:51:27.683Z,10.75
2017-09-20T12:53:55.517Z,10.50
2017-09-20T12:56:23.416Z,10.15
2017-09-20T12:58:51.054Z,10.10
2017-09-20T13:01:18.718Z,10.38
2017-09-20T13:03:46.431Z,11.45
2017-09-20T13:06:14.065Z,11.82
2017-09-20T13:08:41.744Z,11.30
2017-09-20T13:11:09.462Z,9.88
2017-09-20T13:13:37.124Z,10.30
2017-09-20T13:16:05.582Z,7.62
2017-09-20T13:18:33.341Z,7.37
2017-09-20T13:21:01.882Z,7.53
2017-09-20T13:23:30.361Z,7.50
2017-09-20T13:25:58.130Z,7.80
2017-09-20T13:28:25.907Z,9.13
2017-09-20T13:30:53.622Z,6.87
2017-09-20T13:33:21.321Z,4.90
2017-09-20T13:35:49.365Z,4.68
2017-09-20T13:38:17.371Z,5.50
2017-09-20T13:40:45.315Z,4.97
2017-09-20T13:43:13.161Z,5.37
2017-09-20T13:45:40.798Z,5.35
2017-09-20T13:48:08.667Z,5.03
2017-09-20T13:50:36.390Z,5.53
2017-09-20T13:53:04.051Z,5.60
2017-09-20T13:55:32.943Z,5.40
2017-09-20T13:58:11.061Z,4.75
2017-09-20T14:00:38.754Z,4.32
2017-09-20T14:03:07.327Z,3.95
2017-09-20T14:05:35.124Z,4.10
2017-09-20T14:08:02.802Z,4.03
2017-09-20T14:10:30.479Z,4.05
2017-09-20T14:12:58.114Z,3.90
2017-09-20T14:15:25.714Z,4.10
2017-09-20T14:17:53.451Z,3.67
2017-09-20T14:20:21.089Z,5.10
2017-09-20T14:22:48.715Z,4.32
2017-09-20T14:25:17.495Z,4.95
2017-09-20T14:27:45.134Z,4.78
2017-09-20T14:30:12.983Z,4.30
2017-09-20T14:32:40.683Z,4.78
2017-09-20T14:35:08.358Z,5.22
2017-09-20T14:37:36.021Z,4.20
2017-09-20T14:40:04.939Z,4.87
2017-09-20T14:42:36.660Z,5.95
2017-09-20T14:45:04.840Z,5.70
2017-09-20T14:47:32.513Z,7.90
2017-09-20T14:50:00.233Z,7.20
2017-09-20T14:52:27.899Z,6.82
2017-09-20T14:54:55.535Z,6.40
2017-09-20T14:57:23.935Z,6.10
2017-09-20T14:59:51.594Z,6.62
2017-09-20T15:02:19.205Z,6.35
2017-09-20T15:04:46.808Z,6.68
2017-09-20T15:07:14.580Z,7.03
2017-09-20T15:09:42.221Z,6.85
2017-09-20T15:12:09.862Z,7.10
2017-09-20T15:14:37.651Z,7.00
2017-09-20T15:17:05.327Z,6.62
2017-09-20T15:19:32.988Z,5.45
2017-09-20T15:22:00.632Z,4.60
2017-09-20T15:24:28.637Z,3.75
2017-09-20T15:26:56.255Z,3.70
2017-09-20T15:29:23.866Z,3.53
2017-09-20T15:31:54.737Z,3.53
2017-09-20T15:34:22.339Z,3.85
2017-09-20T15:36:53.007Z,3.90
2017-09-20T15:39:20.654Z,3.90
2017-09-20T15:41:48.290Z,4.37
2017-09-20T15:44:15.941Z,4.95
2017-09-20T15:46:43.699Z,4.90
2017-09-20T15:49:11.405Z,4.30
2017-09-20T15:51:39.816Z,3.30
2017-09-20T15:54:07.455Z,3.20
2017-09-20T15:56:35.142Z,2.55
2017-09-20T15:59:02.856Z,2.20
2017-09-20T16:01:30.518Z,2.47
2017-09-20T16:03:58.166Z,2.40
2017-09-20T16:06:29.908Z,3.25
2017-09-20T16:08:58.355Z,2.08
2017-09-20T16:11:25.996Z,2.05
2017-09-20T16:13:53.673Z,2.30
2017-09-20T16:16:21.344Z,1.90
2017-09-20T16:18:48.942Z,1.40
2017-09-20T16:21:17.366Z,1.65
2017-09-20T16:23:45.011Z,1.75
2017-09-20T16:26:12.638Z,1.60
2017-09-20T16:28:40.260Z,1.75
2017-09-20T16:31:07.925Z,1.95
2017-09-20T16:33:35.559Z,1.48
2017-09-20T16:36:03.800Z,1.60
2017-09-20T16:38:31.454Z,1.80
2017-09-20T16:40:59.084Z,2.15
2017-09-20T16:43:26.693Z,1.98
2017-09-20T16:45:54.326Z,1.92
2017-09-20T16:48:21.978Z,2.10
2017-09-20T16:50:49.715Z,2.30
2017-09-20T16:53:17.515Z,2.92
2017-09-20T16:55:45.154Z,2.67
2017-09-20T16:58:12.838Z,2.40
2017-09-20T17:00:40.581Z,2.72
2017-09-20T17:03:08.241Z,2.87
2017-09-20T17:05:35.881Z,2.70
2017-09-20T17:08:03.557Z,3.00
2017-09-20T17:10:31.297Z,3.65
2017-09-20T17:12:58.938Z,3.55
2017-09-20T17:15:26.541Z,4.20
2017-09-20T17:17:54.164Z,4.68
2017-09-20T17:20:21.867Z,4.50
2017-09-20T17:22:49.489Z,4.50
2017-09-20T17:25:17.197Z,5.40
2017-09-20T17:27:45.205Z,5.20
2017-09-20T17:30:14.729Z,4.75
2017-09-20T17:32:42.449Z,6.65
2017-09-20T17:35:10.930Z,6.50
2017-09-20T17:37:38.736Z,7.60
2017-09-20T17:40:06.554Z,6.93
2017-09-20T17:42:34.358Z,6.03
2017-09-20T17:45:02.129Z,6.95
2017-09-20T17:47:29.988Z,7.55
2017-09-20T17:49:59.825Z,8.98
2017-09-20T17:52:27.668Z,9.00
2017-09-20T17:54:55.402Z,8.45
2017-09-20T17:57:23.460Z,8.80
2017-09-20T17:59:51.142Z,8.27
2017-09-20T18:02:20.347Z,8.93
2017-09-20T18:04:48.546Z,8.52
2017-09-20T18:07:16.777Z,8.93
2017-09-20T18:09:44.473Z,8.57
2017-09-20T18:12:12.060Z,7.05
2017-09-20T18:14:39.709Z,7.62
2017-09-20T18:17:07.346Z,7.28
2017-09-20T18:19:35.028Z,6.55
2017-09-20T18:22:02.667Z,6.78
2017-09-20T18:24:30.616Z,6.87
2017-09-20T18:26:58.318Z,6.95
2017-09-20T18:29:26.301Z,7.25
2017-09-20T18:31:53.942Z,8.15
2017-09-20T18:34:21.564Z,8.18
2017-09-20T18:36:50.089Z,8.43
2017-09-20T18:39:18.646Z,6.78
2017-09-20T18:41:46.319Z,7.50
2017-09-20T18:44:14.031Z,7.55
2017-09-20T18:46:41.675Z,7.47
2017-09-20T18:49:09.302Z,7.95
2017-09-20T18:51:36.974Z,8.00
2017-09-20T18:54:04.619Z,9.40
2017-09-20T18:56:32.257Z,8.68
2017-09-20T18:58:59.958Z,8.65
2017-09-20T19:01:27.569Z,7.70
2017-09-20T19:03:55.165Z,8.68
2017-09-20T19:06:22.800Z,7.78
2017-09-20T19:08:50.405Z,9.20
2017-09-20T19:11:18.651Z,8.30
2017-09-20T19:13:46.236Z,9.05
2017-09-20T19:16:14.810Z,8.52
2017-09-20T19:18:42.592Z,7.93
2017-09-20T19:21:10.188Z,7.18
2017-09-20T19:23:37.896Z,7.90
2017-09-20T19:26:05.577Z,8.30
2017-09-20T19:28:33.232Z,7.80
2017-09-20T19:31:01.751Z,8.10
2017-09-20T19:33:29.336Z,7.87
2017-09-20T19:35:56.965Z,7.37
2017-09-20T19:38:24.568Z,8.07
2017-09-20T19:40:52.186Z,7.35
2017-09-20T19:43:19.872Z,8.30
2017-09-20T19:45:47.508Z,7.32
2017-09-20T19:48:15.225Z,9.10
2017-09-20T19:50:42.856Z,8.05
2017-09-20T19:53:10.503Z,8.30
2017-09-20T19:55:38.128Z,8.20
2017-09-20T19:58:05.741Z,9.18
2017-09-20T20:00:34.231Z,8.63
2017-09-20T20:03:01.933Z,7.82
2017-09-20T20:05:29.531Z,8.45
2017-09-20T20:07:57.168Z,7.60
2017-09-20T20:10:24.779Z,8.93
2017-09-20T20:12:52.378Z,8.40
2017-09-20T20:15:19.963Z,7.60
2017-09-20T20:17:47.696Z,8.25
2017-09-20T20:20:15.388Z,7.60
2017-09-20T20:22:43.100Z,8.75
2017-09-20T20:25:10.764Z,9.13
2017-09-20T20:27:38.457Z,9.20
2017-09-20T20:30:06.119Z,7.87
2017-09-20T20:32:33.789Z,8.60
2017-09-20T20:35:01.431Z,8.48
2017-09-20T20:37:29.016Z,7.00
2017-09-20T20:39:56.631Z,7.65
2017-09-20T20:42:24.333Z,7.70
2017-09-20T20:44:51.917Z,7.45
2017-09-20T20:47:19.561Z,7.45
2017-09-20T20:49:47.215Z,7.28
2017-09-20T20:52:14.858Z,6.30
2017-09-20T20:54:42.477Z,6.10
2017-09-20T20:57:10.091Z,6.70
2017-09-20T20:59:38.168Z,5.78
2017-09-20T21:02:05.805Z,5.85
2017-09-20T21:04:34.332Z,5.80
2017-09-20T21:07:01.969Z,6.80
2017-09-20T21:09:29.585Z,6.50
2017-09-20T21:11:57.208Z,6.07
2017-09-20T21:14:24.845Z,6.87
2017-09-20T21:16:52.459Z,6.65
2017-09-20T21:19:20.814Z,6.50
2017-09-20T21:21:48.544Z,7.82
2017-09-20T21:24:16.126Z,6.90
2017-09-20T21:26:43.716Z,6.68
2017-09-20T21:29:17.371Z,6.87
2017-09-20T21:31:44.956Z,6.70
2017-09-20T21:34:12.691Z,7.07
2017-09-20T21:36:40.263Z,7.40
2017-09-20T21:39:07.936Z,6.97
2017-09-20T21:41:35.527Z,7.40
2017-09-20T21:44:03.122Z,8.60
2017-09-20T21:46:30.758Z,7.00
2017-09-20T21:48:59.206Z,7.43
2017-09-20T21:51:27.003Z,7.20
2017-09-20T21:53:55.411Z,8.00
2017-09-20T21:56:23.101Z,7.40
2017-09-20T21:58:50.718Z,8.10
2017-09-20T22:01:18.983Z,9.30
2017-09-20T22:03:47.359Z,8.32
2017-09-20T22:06:15.777Z,8.43
2017-09-20T22:08:43.370Z,7.90
2017-09-20T22:11:11.573Z,8.30
2017-09-20T22:13:39.990Z,6.95
2017-09-20T22:16:19.332Z,8.55
2017-09-20T22:18:59.009Z,9.32
2017-09-20T22:21:38.592Z,7.70
2017-09-20T22:24:18.067Z,8.68
2017-09-20T22:26:46.051Z,8.38
2017-09-20T22:29:13.684Z,9.52
2017-09-20T22:31:41.286Z,10.05
2017-09-20T22:34:08.911Z,11.12
2017-09-20T22:36:36.641Z,14.35
2017-09-20T22:39:04.344Z,12.65
2017-09-20T22:41:31.969Z,10.63
2017-09-20T22:43:59.594Z,11.23
2017-09-20T22:46:27.245Z,11.48
2017-09-20T22:48:54.926Z,10.23
2017-09-20T22:51:22.560Z,11.20
2017-09-20T22:53:50.222Z,10.57
2017-09-20T22:56:17.846Z,11.12
2017-09-20T22:58:45.483Z,11.55
2017-09-20T23:01:13.841Z,11.52
2017-09-20T23:03:41.441Z,10.50
2017-09-20T23:06:09.074Z,10.07
2017-09-20T23:08:36.665Z,10.18
2017-09-20T23:11:04.334Z,10.98
2017-09-20T23:13:31.961Z,9.30
2017-09-20T23:15:59.583Z,9.48
2017-09-20T23:18:27.257Z,8.82
2017-09-20T23:20:54.894Z,9.35
2017-09-20T23:23:22.554Z,9.63
2017-09-20T23:25:50.138Z,10.25
2017-09-20T23:28:17.784Z,11.23
2017-09-20T23:30:45.384Z,46.63
2017-09-20T23:33:13.076Z,52.50
2017-09-20T23:35:40.700Z,18.70
2017-09-20T23:38:08.320Z,14.15
2017-09-20T23:40:36.019Z,13.45
2017-09-20T23:43:03.672Z,10.70
2017-09-20T23:45:31.304Z,10.63
2017-09-20T23:47:58.899Z,14.95
2017-09-20T23:50:26.485Z,16.08
2017-09-20T23:52:54.130Z,12.65
2017-09-20T23:55:21.763Z,12.55
2017-09-20T23:57:49.382Z,13.52
